createdAt,value
2019-03-29T00:02:02.262Z,7.80
2019-03-29T00:04:50.924Z,7.80
2019-03-29T00:07:41.120Z,7.70
2019-03-29T00:10:30.252Z,7.60
2019-03-29T00:13:18.657Z,7.60
2019-03-29T00:16:07.031Z,7.60
2019-03-29T00:18:55.261Z,7.50
2019-03-29T00:21:43.112Z,7.50
2019-03-29T00:24:31.496Z,7.50
2019-03-29T00:27:19.969Z,7.40
2019-03-29T00:30:08.866Z,7.30
2019-03-29T00:32:57.995Z,7.20
2019-03-29T00:35:47.289Z,7.00
2019-03-29T00:38:35.749Z,6.80
2019-03-29T00:41:24.397Z,6.60
2019-03-29T00:44:13.224Z,6.40
2019-03-29T00:47:01.415Z,6.20
2019-03-29T00:49:49.597Z,6.10
2019-03-29T00:52:37.705Z,5.90
2019-03-29T00:55:25.734Z,5.80
2019-03-29T00:58:14.253Z,5.70
2019-03-29T01:01:02.583Z,5.60
2019-03-29T01:03:50.913Z,5.50
2019-03-29T01:06:39.225Z,5.40
2019-03-29T01:09:27.624Z,5.30
2019-03-29T01:12:15.748Z,5.30
2019-03-29T01:15:05.773Z,5.10
2019-03-29T01:17:54.557Z,5.00
2019-03-29T01:20:42.859Z,4.90
2019-03-29T01:23:31.018Z,4.90
2019-03-29T01:26:19.194Z,4.80
2019-03-29T01:29:07.586Z,4.80
2019-03-29T01:31:55.507Z,4.70
2019-03-29T01:34:43.895Z,4.60
2019-03-29T01:37:31.795Z,4.60
2019-03-29T01:40:20.338Z,4.50
2019-03-29T01:43:08.440Z,4.40
2019-03-29T01:45:56.427Z,4.40
2019-03-29T01:48:45.225Z,4.30
2019-03-29T01:51:34.016Z,4.20
2019-03-29T01:54:22.778Z,4.20
2019-03-29T01:57:11.084Z,4.20
2019-03-29T01:59:59.421Z,4.20
2019-03-29T02:02:48.180Z,4.10
2019-03-29T02:05:36.546Z,4.10
2019-03-29T02:08:35.292Z,4.10
2019-03-29T02:11:14.931Z,4.00
2019-03-29T02:14:03.034Z,3.90
2019-03-29T02:16:51.303Z,3.80
2019-03-29T02:19:39.610Z,3.80
2019-03-29T02:22:27.998Z,3.70
2019-03-29T02:25:16.421Z,3.60
2019-03-29T02:28:04.964Z,3.50
2019-03-29T02:30:53.159Z,3.50
2019-03-29T02:33:42.206Z,3.30
2019-03-29T02:36:30.724Z,3.30
2019-03-29T02:39:19.238Z,3.10
2019-03-29T02:42:07.512Z,3.10
2019-03-29T02:44:55.926Z,3.10
2019-03-29T02:47:44.070Z,3.00
2019-03-29T02:50:32.015Z,3.00
2019-03-29T02:53:20.285Z,2.90
2019-03-29T02:56:08.770Z,2.90
2019-03-29T02:58:57.124Z,2.90
2019-03-29T03:01:45.551Z,2.80
2019-03-29T03:04:33.647Z,2.80
2019-03-29T03:07:21.689Z,2.80
2019-03-29T03:10:10.993Z,2.80
2019-03-29T03:12:59.933Z,2.80
2019-03-29T03:15:48.236Z,2.80
2019-03-29T03:18:36.737Z,2.70
2019-03-29T03:21:24.943Z,2.70
2019-03-29T03:24:13.443Z,2.70
2019-03-29T03:27:01.835Z,2.60
2019-03-29T03:29:50.144Z,2.60
2019-03-29T03:32:38.171Z,2.50
2019-03-29T03:35:26.647Z,2.50
2019-03-29T03:38:15.106Z,2.40
2019-03-29T03:41:03.921Z,2.30
2019-03-29T03:43:52.051Z,2.30
2019-03-29T03:46:40.530Z,2.20
2019-03-29T03:49:28.882Z,2.10
2019-03-29T03:52:16.927Z,2.10
2019-03-29T03:55:05.908Z,2.20
2019-03-29T03:57:57.641Z,2.20
2019-03-29T04:00:54.024Z,2.10
2019-03-29T04:03:42.498Z,2.20
2019-03-29T04:06:30.441Z,2.20
2019-03-29T04:09:18.329Z,2.20
2019-03-29T04:12:07.321Z,2.20
2019-03-29T04:14:55.624Z,2.30
2019-03-29T04:17:44.008Z,2.40
2019-03-29T04:20:31.947Z,2.40
2019-03-29T04:23:20.710Z,2.40
2019-03-29T04:26:09.288Z,2.40
2019-03-29T04:29:04.792Z,2.40
2019-03-29T04:31:48.035Z,2.40
2019-03-29T04:34:36.238Z,2.30
2019-03-29T04:37:24.310Z,2.30
2019-03-29T04:40:12.499Z,2.10
2019-03-29T04:43:00.695Z,2.10
2019-03-29T04:45:48.814Z,2.00
2019-03-29T04:48:37.750Z,2.00
2019-03-29T04:51:26.145Z,1.90
2019-03-29T04:54:14.387Z,1.90
2019-03-29T04:57:02.972Z,1.80
2019-03-29T04:59:51.905Z,1.80
2019-03-29T05:02:40.326Z,1.70
2019-03-29T05:05:28.235Z,1.70
2019-03-29T05:08:16.546Z,1.60
2019-03-29T05:11:04.875Z,1.60
2019-03-29T05:13:53.123Z,1.50
2019-03-29T05:16:41.214Z,1.50
2019-03-29T05:19:29.814Z,1.50
2019-03-29T05:22:18.461Z,1.50
2019-03-29T05:25:07.573Z,1.40
2019-03-29T05:27:56.827Z,1.40
2019-03-29T05:30:45.004Z,1.40
2019-03-29T05:33:32.798Z,1.50
2019-03-29T05:36:20.887Z,1.40
2019-03-29T05:39:09.353Z,1.40
2019-03-29T05:41:57.932Z,1.40
2019-03-29T05:44:46.471Z,1.40
2019-03-29T05:47:34.408Z,1.30
2019-03-29T05:50:22.749Z,1.40
2019-03-29T05:53:11.186Z,1.40
2019-03-29T05:55:59.622Z,1.40
2019-03-29T05:58:47.899Z,1.50
2019-03-29T06:01:36.128Z,1.50
2019-03-29T06:04:24.403Z,1.60
2019-03-29T06:07:12.674Z,1.60
2019-03-29T06:10:00.776Z,1.70
2019-03-29T06:12:49.024Z,1.80
2019-03-29T06:15:37.271Z,1.90
2019-03-29T06:18:25.976Z,2.00
2019-03-29T06:21:14.017Z,2.10
2019-03-29T06:24:02.299Z,2.30
2019-03-29T06:26:50.344Z,2.50
2019-03-29T06:29:38.599Z,2.70
2019-03-29T06:32:27.398Z,2.90
2019-03-29T06:35:15.441Z,3.10
2019-03-29T06:38:05.781Z,3.30
2019-03-29T06:41:02.931Z,3.50
2019-03-29T06:43:44.383Z,3.70
2019-03-29T06:46:33.074Z,3.90
2019-03-29T06:49:21.392Z,4.10
2019-03-29T06:52:10.030Z,4.20
2019-03-29T06:54:58.618Z,4.40
2019-03-29T06:57:47.565Z,4.60
2019-03-29T07:00:36.204Z,4.70
2019-03-29T07:03:24.255Z,4.80
2019-03-29T07:06:12.737Z,5.00
2019-03-29T07:09:00.652Z,5.20
2019-03-29T07:11:49.089Z,5.30
2019-03-29T07:14:37.083Z,5.40
2019-03-29T07:17:25.196Z,5.60
2019-03-29T07:20:13.440Z,5.70
2019-03-29T07:23:01.842Z,5.90
2019-03-29T07:25:50.390Z,5.90
2019-03-29T07:28:38.558Z,6.00
2019-03-29T07:31:27.122Z,6.10
2019-03-29T07:34:15.361Z,6.30
2019-03-29T07:37:05.782Z,6.40
2019-03-29T07:39:54.046Z,6.60
2019-03-29T07:42:42.517Z,6.70
2019-03-29T07:45:30.794Z,6.80
2019-03-29T07:48:19.182Z,7.10
2019-03-29T07:51:07.347Z,7.20
2019-03-29T07:53:55.433Z,7.40
2019-03-29T07:56:43.620Z,7.60
2019-03-29T07:59:31.848Z,7.90
2019-03-29T08:02:20.468Z,8.00
2019-03-29T08:05:08.805Z,8.10
2019-03-29T08:07:57.029Z,8.30
2019-03-29T08:10:45.575Z,8.50
2019-03-29T08:13:33.473Z,8.70
2019-03-29T08:16:22.180Z,8.90
2019-03-29T08:19:10.652Z,9.00
2019-03-29T08:21:58.494Z,9.20
2019-03-29T08:24:46.706Z,9.50
2019-03-29T08:27:35.118Z,9.50
2019-03-29T08:30:23.647Z,9.70
2019-03-29T08:33:11.343Z,9.90
2019-03-29T08:35:59.785Z,10.20
2019-03-29T08:38:47.820Z,10.30
2019-03-29T08:41:36.080Z,10.40
2019-03-29T08:44:24.517Z,10.60
2019-03-29T08:47:12.899Z,10.70
2019-03-29T08:50:01.458Z,10.80
2019-03-29T08:52:49.278Z,10.90
2019-03-29T08:55:45.824Z,11.00
2019-03-29T08:58:26.985Z,11.00
2019-03-29T09:01:19.121Z,11.10
2019-03-29T09:04:06.270Z,11.20
2019-03-29T09:06:54.891Z,11.20
2019-03-29T09:09:46.231Z,11.30
2019-03-29T09:12:33.299Z,11.50
2019-03-29T09:15:22.010Z,11.60
2019-03-29T09:18:10.129Z,11.80
2019-03-29T09:20:58.805Z,11.90
2019-03-29T09:23:47.212Z,11.90
2019-03-29T09:26:35.517Z,11.90
2019-03-29T09:29:23.650Z,12.00
2019-03-29T09:32:12.112Z,12.10
2019-03-29T09:35:00.416Z,12.10
2019-03-29T09:37:48.732Z,12.20
2019-03-29T09:40:36.755Z,12.20
2019-03-29T09:43:26.810Z,12.30
2019-03-29T09:46:14.951Z,12.40
2019-03-29T09:51:50.274Z,12.50
2019-03-29T09:54:38.530Z,12.60
2019-03-29T09:57:37.403Z,12.60
2019-03-29T10:00:23.003Z,12.90
2019-03-29T10:03:07.873Z,13.00
2019-03-29T10:05:56.274Z,12.90
2019-03-29T10:08:44.160Z,12.80
2019-03-29T10:11:32.799Z,12.90
2019-03-29T10:14:21.131Z,12.90
2019-03-29T10:17:09.542Z,13.00
2019-03-29T10:19:57.741Z,13.20
2019-03-29T10:22:46.289Z,13.40
2019-03-29T10:25:34.438Z,13.50
2019-03-29T10:28:22.965Z,13.40
2019-03-29T10:31:11.060Z,13.40
2019-03-29T10:33:59.429Z,13.50
2019-03-29T10:36:47.523Z,13.60
2019-03-29T10:39:36.079Z,13.70
2019-03-29T10:42:24.416Z,13.80
2019-03-29T10:45:12.826Z,13.80
2019-03-29T10:48:00.793Z,14.00
2019-03-29T11:27:22.358Z,14.90
2019-03-29T11:30:09.455Z,15.10
2019-03-29T11:32:58.289Z,15.10
2019-03-29T11:35:46.569Z,15.10
2019-03-29T11:38:34.969Z,15.10
2019-03-29T11:41:23.469Z,15.20
2019-03-29T11:44:12.159Z,15.20
2019-03-29T11:47:00.289Z,15.30
2019-03-29T11:49:48.415Z,15.30
2019-03-29T11:52:36.268Z,15.30
2019-03-29T11:55:24.929Z,15.40
2019-03-29T11:58:13.704Z,15.40
2019-03-29T12:01:05.303Z,15.60
2019-03-29T12:06:40.945Z,15.60
2019-03-29T12:12:16.653Z,15.80
2019-03-29T12:15:05.184Z,15.90
2019-03-29T12:17:53.368Z,15.80
2019-03-29T12:20:42.205Z,15.90
2019-03-29T12:23:31.053Z,16.00
2019-03-29T12:26:19.123Z,16.00
2019-03-29T12:29:07.621Z,16.10
2019-03-29T12:31:56.248Z,16.20
2019-03-29T12:34:44.672Z,16.20
2019-03-29T12:37:33.490Z,16.20
2019-03-29T12:40:21.717Z,16.30
2019-03-29T12:43:12.592Z,16.40
2019-03-29T12:46:00.244Z,16.30
2019-03-29T12:48:50.240Z,16.30
2019-03-29T12:51:38.183Z,16.30
2019-03-29T12:54:26.908Z,16.40
2019-03-29T12:57:15.370Z,16.40
2019-03-29T13:00:04.460Z,16.40
2019-03-29T13:02:54.329Z,16.40
2019-03-29T13:05:42.786Z,16.50
2019-03-29T13:08:31.019Z,16.50
2019-03-29T13:11:19.638Z,16.50
2019-03-29T13:14:10.441Z,16.60
2019-03-29T13:16:58.105Z,16.50
2019-03-29T13:19:46.085Z,16.50
2019-03-29T13:22:35.012Z,16.60
2019-03-29T13:25:23.371Z,16.70
2019-03-29T13:28:12.023Z,16.70
2019-03-29T13:31:00.432Z,16.70
2019-03-29T13:33:49.226Z,16.80
2019-03-29T13:36:37.324Z,16.80
2019-03-29T13:39:25.675Z,16.90
2019-03-29T13:42:14.078Z,16.80
2019-03-29T13:45:02.415Z,16.80
2019-03-29T13:47:50.668Z,16.70
2019-03-29T13:50:38.953Z,16.80
2019-03-29T13:53:27.619Z,16.80
2019-03-29T13:56:15.751Z,16.70
2019-03-29T13:59:05.284Z,16.70
2019-03-29T14:01:54.109Z,16.70
2019-03-29T14:04:42.472Z,16.60
2019-03-29T14:07:30.259Z,16.60
2019-03-29T14:10:19.225Z,16.70
2019-03-29T14:13:07.939Z,16.80
2019-03-29T14:15:56.030Z,16.90
2019-03-29T14:18:44.215Z,16.90
2019-03-29T14:21:32.461Z,16.80
2019-03-29T14:24:21.221Z,17.00
2019-03-29T14:27:09.833Z,17.10
2019-03-29T14:30:04.275Z,17.20
2019-03-29T14:32:47.816Z,17.20
2019-03-29T14:35:36.411Z,17.20
2019-03-29T14:38:24.849Z,17.10
2019-03-29T14:41:13.234Z,17.10
2019-03-29T14:44:01.085Z,17.10
2019-03-29T14:46:49.826Z,17.10
2019-03-29T14:49:37.573Z,17.10
2019-03-29T14:58:01.827Z,17.10
2019-03-29T15:00:49.937Z,17.10
2019-03-29T15:03:38.459Z,17.10
2019-03-29T15:06:26.222Z,17.10
2019-03-29T15:09:14.386Z,17.00
2019-03-29T15:12:02.654Z,17.00
2019-03-29T15:14:50.730Z,17.00
2019-03-29T15:17:38.608Z,17.10
2019-03-29T15:20:26.783Z,17.10
2019-03-29T15:23:15.251Z,17.20
2019-03-29T15:26:04.086Z,17.10
2019-03-29T15:28:52.263Z,17.10
2019-03-29T15:31:40.345Z,17.10
2019-03-29T15:34:28.247Z,16.90
2019-03-29T15:37:16.607Z,16.90
2019-03-29T15:40:05.480Z,16.80
2019-03-29T15:42:53.892Z,16.70
2019-03-29T15:45:42.100Z,16.80
2019-03-29T15:48:30.610Z,16.80
2019-03-29T15:51:19.418Z,16.70
2019-03-29T15:54:07.877Z,16.70
2019-03-29T15:56:55.766Z,16.70
2019-03-29T15:59:43.694Z,16.70
2019-03-29T16:02:31.656Z,16.70
2019-03-29T16:05:19.703Z,16.70
2019-03-29T16:08:08.200Z,16.70
2019-03-29T16:10:56.345Z,16.60
2019-03-29T16:13:44.287Z,16.60
2019-03-29T16:16:32.977Z,16.60
2019-03-29T16:19:21.772Z,16.60
2019-03-29T16:22:10.009Z,16.60
2019-03-29T16:24:58.969Z,16.40
2019-03-29T16:27:47.062Z,16.40
2019-03-29T16:30:35.861Z,16.30
2019-03-29T16:33:24.122Z,16.20
2019-03-29T16:36:12.650Z,16.20
2019-03-29T16:39:00.832Z,16.30
2019-03-29T16:41:49.239Z,16.40
2019-03-29T16:44:37.591Z,16.40
2019-03-29T16:47:26.266Z,16.40
2019-03-29T16:50:15.832Z,16.40
2019-03-29T16:53:06.659Z,16.20
2019-03-29T16:55:55.936Z,16.10
2019-03-29T16:58:44.424Z,16.10
2019-03-29T17:01:32.640Z,16.00
2019-03-29T17:04:20.823Z,16.00
2019-03-29T17:07:10.513Z,16.00
2019-03-29T17:09:59.151Z,15.90
2019-03-29T17:12:57.255Z,15.80
2019-03-29T17:15:45.890Z,15.70
2019-03-29T17:18:34.293Z,15.60
2019-03-29T17:21:22.351Z,15.30
2019-03-29T17:24:10.654Z,15.20
2019-03-29T17:26:59.159Z,15.00
2019-03-29T17:29:47.649Z,14.80
2019-03-29T17:32:36.188Z,14.70
2019-03-29T17:35:24.615Z,14.60
2019-03-29T17:38:12.847Z,14.50
2019-03-29T17:41:01.340Z,14.40
2019-03-29T17:43:49.774Z,14.30
2019-03-29T17:46:38.040Z,14.30
2019-03-29T17:49:26.439Z,14.20
2019-03-29T17:52:14.316Z,14.10
2019-03-29T17:55:02.639Z,14.10
2019-03-29T17:57:50.926Z,14.00
2019-03-29T18:00:39.139Z,14.00
2019-03-29T18:03:27.799Z,13.90
2019-03-29T18:06:16.137Z,13.80
2019-03-29T18:09:05.755Z,13.70
2019-03-29T18:11:54.064Z,13.60
2019-03-29T18:14:42.394Z,13.50
2019-03-29T18:17:30.477Z,13.40
2019-03-29T18:20:19.175Z,13.40
2019-03-29T18:23:07.886Z,13.30
2019-03-29T18:25:56.613Z,13.20
2019-03-29T18:28:44.682Z,13.20
2019-03-29T18:31:32.926Z,13.00
2019-03-29T18:34:21.474Z,13.00
2019-03-29T18:37:10.900Z,12.90
2019-03-29T18:40:04.504Z,12.80
2019-03-29T18:42:52.915Z,12.80
2019-03-29T18:45:41.797Z,12.60
2019-03-29T18:48:30.364Z,12.60
2019-03-29T18:51:18.609Z,12.50
2019-03-29T18:54:07.179Z,12.40
2019-03-29T18:56:54.918Z,12.30
2019-03-29T18:59:42.695Z,12.20
2019-03-29T19:02:30.589Z,12.10
2019-03-29T19:05:25.470Z,12.10
2019-03-29T19:08:13.598Z,12.10
2019-03-29T19:11:01.955Z,12.00
2019-03-29T19:13:50.183Z,12.00
2019-03-29T19:16:38.450Z,11.90
2019-03-29T19:19:27.019Z,11.80
2019-03-29T19:22:15.205Z,11.80
2019-03-29T19:25:03.757Z,11.70
2019-03-29T19:27:52.128Z,11.70
2019-03-29T19:30:40.552Z,11.60
2019-03-29T19:33:28.846Z,11.50
2019-03-29T19:36:17.396Z,11.40
2019-03-29T19:39:07.068Z,11.30
2019-03-29T19:41:55.403Z,11.20
2019-03-29T19:44:43.855Z,11.20
2019-03-29T19:47:32.687Z,11.10
2019-03-29T19:50:21.137Z,11.10
2019-03-29T19:53:09.355Z,11.10
2019-03-29T19:55:57.939Z,11.00
2019-03-29T19:58:46.662Z,10.90
2019-03-29T20:01:35.350Z,10.80
2019-03-29T20:04:23.780Z,10.60
2019-03-29T20:07:11.522Z,10.50
2019-03-29T20:09:59.676Z,10.40
2019-03-29T20:12:47.821Z,10.20
2019-03-29T20:15:36.350Z,9.90
2019-03-29T20:18:24.596Z,9.70
2019-03-29T20:21:12.659Z,9.60
2019-03-29T20:24:00.960Z,9.50
2019-03-29T20:26:49.098Z,9.30
2019-03-29T20:29:37.367Z,9.30
2019-03-29T20:32:25.417Z,9.20
2019-03-29T20:35:13.262Z,9.10
2019-03-29T20:38:01.835Z,9.00
2019-03-29T20:40:50.370Z,8.90
2019-03-29T20:43:38.809Z,8.70
2019-03-29T20:46:27.242Z,8.50
2019-03-29T20:49:15.819Z,8.30
2019-03-29T20:52:05.270Z,8.20
2019-03-29T20:54:53.332Z,8.00
2019-03-29T20:57:41.490Z,7.90
2019-03-29T21:00:29.742Z,7.80
2019-03-29T21:03:18.317Z,7.80
2019-03-29T21:06:06.572Z,7.70
2019-03-29T21:08:54.348Z,7.60
2019-03-29T21:11:42.552Z,7.60
2019-03-29T21:14:31.520Z,7.50
2019-03-29T21:17:19.896Z,7.40
2019-03-29T21:20:09.077Z,7.30
2019-03-29T21:22:56.971Z,7.20
2019-03-29T21:25:45.324Z,7.20
2019-03-29T21:28:35.023Z,7.10
2019-03-29T21:31:23.696Z,7.10
2019-03-29T21:34:12.006Z,7.00
2019-03-29T21:36:59.774Z,7.00
2019-03-29T21:39:47.688Z,6.90
2019-03-29T21:42:36.215Z,6.90
2019-03-29T21:45:29.066Z,6.80
2019-03-29T21:48:28.208Z,6.80
2019-03-29T21:51:04.029Z,6.70
2019-03-29T21:53:51.878Z,6.50
2019-03-29T21:56:40.335Z,6.40
2019-03-29T21:59:28.741Z,6.30
2019-03-29T22:02:17.149Z,6.30
2019-03-29T22:05:10.050Z,6.20
2019-03-29T22:07:56.588Z,6.10
2019-03-29T22:10:45.137Z,6.00
2019-03-29T22:13:33.941Z,6.00
2019-03-29T22:16:23.471Z,5.90
2019-03-29T22:19:12.113Z,5.90
2019-03-29T22:22:01.293Z,5.80
2019-03-29T22:24:49.989Z,5.70
2019-03-29T22:27:38.742Z,5.70
2019-03-29T22:30:26.837Z,5.60
2019-03-29T22:33:15.030Z,5.50
2019-03-29T22:36:03.608Z,5.40
2019-03-29T22:38:51.730Z,5.30
2019-03-29T22:41:40.104Z,5.30
2019-03-29T22:44:28.373Z,5.20
2019-03-29T22:47:16.395Z,5.20
2019-03-29T22:50:05.121Z,5.20
2019-03-29T22:52:54.669Z,5.10
2019-03-29T22:55:42.678Z,5.10
2019-03-29T22:58:30.912Z,5.00
2019-03-29T23:01:21.151Z,5.00
2019-03-29T23:04:09.269Z,5.00
2019-03-29T23:06:57.921Z,4.90
2019-03-29T23:09:46.091Z,4.90
2019-03-29T23:12:33.991Z,4.80
2019-03-29T23:15:22.333Z,4.80
2019-03-29T23:18:10.917Z,4.70
2019-03-29T23:21:00.007Z,4.70
2019-03-29T23:23:50.335Z,4.60
2019-03-29T23:26:38.581Z,4.60
2019-03-29T23:29:27.982Z,4.50
2019-03-29T23:32:16.180Z,4.40
2019-03-29T23:35:05.013Z,4.40
2019-03-29T23:37:53.178Z,4.30
2019-03-29T23:40:41.364Z,4.30
2019-03-29T23:43:29.562Z,4.30
2019-03-29T23:46:17.540Z,4.20
2019-03-29T23:49:20.001Z,4.20
2019-03-29T23:51:55.735Z,4.20
2019-03-29T23:54:44.291Z,4.20
2019-03-29T23:57:32.384Z,4.20
